createdAt,value
2023-04-16T00:01:51.532Z,73.57
2023-04-16T00:04:18.516Z,73.62
2023-04-16T00:06:45.269Z,73.72
2023-04-16T00:09:12.174Z,73.78
2023-04-16T00:11:38.919Z,73.86
2023-04-16T00:14:05.885Z,73.87
2023-04-16T00:16:33.135Z,73.87
2023-04-16T00:18:59.905Z,73.68
2023-04-16T00:21:26.764Z,73.61
2023-04-16T00:23:53.607Z,73.57
2023-04-16T00:26:20.734Z,73.58
2023-04-16T00:28:47.461Z,73.55
2023-04-16T00:31:14.383Z,73.57
2023-04-16T00:33:41.192Z,73.69
2023-04-16T00:36:08.064Z,73.76
2023-04-16T00:38:35.204Z,73.89
2023-04-16T00:41:02.068Z,73.92
2023-04-16T00:43:28.884Z,74.06
2023-04-16T00:45:57.451Z,74.16
2023-04-16T00:48:24.824Z,74.32
2023-04-16T00:50:51.738Z,74.28
2023-04-16T00:53:18.526Z,74.16
2023-04-16T00:55:46.028Z,74.21
2023-04-16T00:58:13.142Z,74.11
2023-04-16T01:00:39.951Z,74.03
2023-04-16T01:03:06.959Z,73.98
2023-04-16T01:05:33.857Z,73.87
2023-04-16T01:08:03.397Z,73.77
2023-04-16T01:10:31.171Z,73.64
2023-04-16T01:12:57.979Z,73.64
2023-04-16T01:15:24.738Z,73.52
2023-04-16T01:17:51.786Z,73.47
2023-04-16T01:20:18.770Z,73.43
2023-04-16T01:22:46.979Z,73.56
2023-04-16T01:25:15.555Z,73.61
2023-04-16T01:27:42.347Z,73.58
2023-04-16T01:30:09.531Z,73.56
2023-04-16T01:32:36.329Z,73.52
2023-04-16T01:35:03.335Z,73.93
2023-04-16T01:37:31.020Z,74.03
2023-04-16T01:39:58.007Z,74.12
2023-04-16T01:42:24.749Z,73.94
2023-04-16T01:44:51.458Z,73.88
2023-04-16T01:47:18.446Z,73.75
2023-04-16T01:49:48.217Z,73.71
2023-04-16T01:52:15.100Z,73.74
2023-04-16T01:54:42.024Z,73.80
2023-04-16T01:57:09.261Z,73.90
2023-04-16T01:59:36.001Z,73.79
2023-04-16T02:02:11.333Z,73.81
2023-04-16T02:04:39.535Z,73.70
2023-04-16T02:07:06.994Z,73.69
2023-04-16T02:09:38.457Z,73.81
2023-04-16T02:12:06.403Z,73.85
2023-04-16T02:14:33.768Z,73.84
2023-04-16T02:17:01.217Z,73.88
2023-04-16T02:19:27.943Z,73.94
2023-04-16T02:21:55.226Z,73.92
2023-04-16T02:24:22.169Z,74.03
2023-04-16T02:26:48.899Z,74.00
2023-04-16T02:29:16.651Z,73.96
2023-04-16T02:31:43.535Z,74.18
2023-04-16T02:34:10.639Z,74.34
2023-04-16T02:36:37.658Z,74.32
2023-04-16T02:39:05.445Z,74.36
2023-04-16T02:41:32.227Z,74.51
2023-04-16T02:43:59.083Z,74.51
2023-04-16T02:46:25.931Z,74.48
2023-04-16T02:48:52.824Z,74.38
2023-04-16T02:51:19.542Z,74.46
2023-04-16T02:53:46.266Z,74.49
2023-04-16T02:56:13.230Z,74.51
2023-04-16T02:58:40.026Z,74.53
2023-04-16T03:01:06.867Z,74.38
2023-04-16T03:03:33.746Z,74.49
2023-04-16T03:06:00.766Z,74.36
2023-04-16T03:08:27.656Z,74.41
2023-04-16T03:10:54.360Z,74.51
2023-04-16T03:13:21.194Z,74.45
2023-04-16T03:15:49.720Z,74.44
2023-04-16T03:18:16.812Z,74.38
2023-04-16T03:20:43.612Z,74.24
2023-04-16T03:23:10.357Z,74.39
2023-04-16T03:25:37.157Z,74.29
2023-04-16T03:28:04.215Z,74.24
2023-04-16T03:30:31.512Z,74.11
2023-04-16T03:32:58.413Z,73.92
2023-04-16T03:35:25.172Z,73.79
2023-04-16T03:37:52.023Z,73.62
2023-04-16T03:40:18.751Z,73.54
2023-04-16T03:42:45.454Z,73.64
2023-04-16T03:45:12.432Z,73.48
2023-04-16T03:47:39.423Z,73.50
2023-04-16T03:50:06.799Z,73.66
2023-04-16T03:52:33.530Z,73.87
2023-04-16T03:55:00.286Z,73.97
2023-04-16T03:57:27.273Z,73.98
2023-04-16T03:59:54.009Z,73.97
2023-04-16T04:02:21.271Z,73.88
2023-04-16T04:04:48.291Z,74.07
2023-04-16T04:07:16.388Z,74.15
2023-04-16T04:09:43.260Z,74.19
2023-04-16T04:12:10.271Z,74.20
2023-04-16T04:14:40.165Z,74.36
2023-04-16T04:17:08.143Z,74.35
2023-04-16T04:19:34.948Z,74.53
2023-04-16T04:22:01.694Z,74.43
2023-04-16T04:24:28.420Z,74.51
2023-04-16T04:26:55.146Z,74.56
2023-04-16T04:29:21.956Z,74.59
2023-04-16T04:31:48.755Z,74.55
2023-04-16T04:34:15.752Z,74.42
2023-04-16T04:36:42.456Z,74.34
2023-04-16T04:39:09.535Z,74.35
2023-04-16T04:41:36.442Z,74.37
2023-04-16T04:44:03.314Z,74.38
2023-04-16T04:46:30.070Z,74.47
2023-04-16T04:48:56.927Z,74.44
2023-04-16T04:51:23.730Z,74.47
2023-04-16T04:53:50.642Z,74.46
2023-04-16T04:56:17.389Z,74.43
2023-04-16T04:58:44.345Z,74.44
2023-04-16T05:01:11.221Z,74.28
2023-04-16T05:03:38.326Z,74.42
2023-04-16T05:06:05.696Z,74.40
2023-04-16T05:08:32.485Z,74.61
2023-04-16T05:10:59.247Z,74.59
2023-04-16T05:13:26.239Z,74.55
2023-04-16T05:15:53.127Z,74.80
2023-04-16T05:18:19.851Z,74.75
2023-04-16T05:20:46.610Z,74.72
2023-04-16T05:23:13.342Z,74.70
2023-04-16T05:25:40.082Z,74.76
2023-04-16T05:28:07.181Z,74.59
2023-04-16T05:30:33.954Z,74.55
2023-04-16T05:33:00.827Z,74.41
2023-04-16T05:35:27.939Z,74.54
2023-04-16T05:37:54.738Z,74.39
2023-04-16T05:40:21.502Z,74.38
2023-04-16T05:42:48.361Z,74.59
2023-04-16T05:45:15.233Z,74.58
2023-04-16T05:47:41.989Z,74.44
2023-04-16T05:50:09.168Z,74.30
2023-04-16T05:52:35.920Z,74.16
2023-04-16T05:55:02.719Z,74.16
2023-04-16T05:57:30.148Z,74.18
2023-04-16T05:59:56.973Z,74.23
2023-04-16T06:02:23.978Z,74.25
2023-04-16T06:04:50.859Z,74.26
2023-04-16T06:07:17.578Z,74.33
2023-04-16T06:09:45.062Z,74.29
2023-04-16T06:12:11.968Z,74.19
2023-04-16T06:14:38.738Z,74.05
2023-04-16T06:17:05.455Z,74.25
2023-04-16T06:19:32.228Z,74.28
2023-04-16T06:21:59.193Z,73.95
2023-04-16T06:24:26.073Z,73.89
2023-04-16T06:26:52.969Z,73.68
2023-04-16T06:29:20.412Z,73.66
2023-04-16T06:31:48.633Z,73.80
2023-04-16T06:34:16.417Z,73.68
2023-04-16T06:36:43.261Z,73.69
2023-04-16T06:39:10.220Z,73.60
2023-04-16T06:41:37.243Z,73.54
2023-04-16T06:44:04.023Z,73.72
2023-04-16T06:46:30.998Z,73.69
2023-04-16T06:48:57.707Z,73.67
2023-04-16T06:51:24.541Z,73.42
2023-04-16T06:53:51.284Z,73.54
2023-04-16T06:56:18.038Z,73.73
2023-04-16T06:58:44.776Z,73.74
2023-04-16T07:01:11.655Z,73.63
2023-04-16T07:03:38.887Z,73.64
2023-04-16T07:06:05.977Z,73.68
2023-04-16T07:08:32.789Z,73.64
2023-04-16T07:10:59.846Z,73.35
2023-04-16T07:13:26.676Z,73.35
2023-04-16T07:15:54.266Z,73.48
2023-04-16T07:18:21.555Z,73.53
2023-04-16T07:20:48.392Z,73.75
2023-04-16T07:23:15.116Z,73.91
2023-04-16T07:25:42.468Z,73.89
2023-04-16T07:28:09.302Z,73.85
2023-04-16T07:30:36.902Z,73.78
2023-04-16T07:33:04.264Z,73.75
2023-04-16T07:35:32.070Z,73.67
2023-04-16T07:37:59.055Z,73.76
2023-04-16T07:40:26.311Z,73.79
2023-04-16T07:42:53.097Z,73.83
2023-04-16T07:45:19.910Z,73.86
2023-04-16T07:47:46.811Z,73.79
2023-04-16T07:50:13.675Z,73.72
2023-04-16T07:52:42.431Z,73.64
2023-04-16T07:55:09.305Z,73.58
2023-04-16T07:57:36.092Z,73.55
2023-04-16T08:00:05.068Z,73.59
2023-04-16T08:02:32.205Z,73.51
2023-04-16T08:04:59.634Z,73.46
2023-04-16T08:07:26.389Z,73.41
2023-04-16T08:09:53.300Z,73.45
2023-04-16T08:12:21.082Z,73.38
2023-04-16T08:14:48.174Z,73.36
2023-04-16T08:17:15.791Z,73.34
2023-04-16T08:19:44.853Z,73.29
2023-04-16T08:22:14.852Z,73.19
2023-04-16T08:24:41.672Z,73.00
2023-04-16T08:27:18.482Z,72.85
2023-04-16T08:29:47.673Z,72.61
2023-04-16T08:32:14.539Z,72.54
2023-04-16T08:34:42.156Z,72.48
2023-04-16T08:37:09.448Z,72.51
2023-04-16T08:39:36.396Z,72.43
2023-04-16T08:42:06.165Z,72.28
2023-04-16T08:44:37.619Z,72.26
2023-04-16T08:47:09.132Z,72.21
2023-04-16T08:49:36.931Z,72.18
2023-04-16T08:52:09.027Z,72.03
2023-04-16T08:55:02.731Z,71.95
2023-04-16T08:57:38.809Z,72.14
2023-04-16T09:00:07.985Z,71.95
2023-04-16T09:02:35.129Z,71.78
2023-04-16T09:05:05.167Z,71.71
2023-04-16T09:07:33.525Z,71.67
2023-04-16T09:10:01.802Z,71.61
2023-04-16T09:12:30.357Z,71.60
2023-04-16T09:14:59.940Z,71.53
2023-04-16T09:17:27.380Z,71.47
2023-04-16T09:19:54.969Z,71.37
2023-04-16T09:22:21.747Z,71.19
2023-04-16T09:24:48.523Z,70.92
2023-04-16T09:27:16.592Z,70.73
2023-04-16T09:29:43.503Z,70.56
2023-04-16T09:32:12.052Z,70.38
2023-04-16T09:35:00.684Z,70.26
2023-04-16T09:37:32.437Z,70.22
2023-04-16T09:40:04.098Z,70.09
2023-04-16T09:42:33.534Z,69.96
2023-04-16T09:45:02.655Z,69.80
2023-04-16T09:47:44.885Z,69.60
2023-04-16T09:50:19.864Z,69.42
2023-04-16T09:52:53.047Z,69.35
2023-04-16T09:55:23.774Z,69.21
2023-04-16T09:57:59.000Z,68.86
2023-04-16T10:00:25.887Z,68.83
2023-04-16T10:03:04.977Z,68.78
2023-04-16T10:05:31.790Z,68.70
2023-04-16T10:08:02.215Z,68.65
2023-04-16T10:10:29.807Z,68.73
2023-04-16T10:12:56.623Z,68.72
2023-04-16T10:15:23.481Z,68.65
2023-04-16T10:17:51.502Z,68.42
2023-04-16T10:20:19.237Z,68.11
2023-04-16T10:22:46.293Z,68.17
2023-04-16T10:25:13.491Z,68.06
2023-04-16T10:27:41.410Z,68.14
2023-04-16T10:30:11.057Z,68.15
2023-04-16T10:32:38.845Z,68.09
2023-04-16T10:35:06.314Z,68.11
2023-04-16T10:37:33.265Z,68.06
2023-04-16T10:40:00.202Z,68.05
2023-04-16T10:42:27.620Z,68.01
2023-04-16T10:44:54.487Z,67.92
2023-04-16T10:47:24.840Z,67.96
2023-04-16T10:49:52.027Z,67.92
2023-04-16T10:52:19.002Z,67.74
2023-04-16T10:54:48.197Z,67.72
2023-04-16T10:57:20.100Z,67.62
2023-04-16T10:59:49.223Z,67.56
2023-04-16T11:02:19.728Z,67.19
2023-04-16T11:04:48.506Z,67.11
2023-04-16T11:07:21.756Z,67.34
2023-04-16T11:09:51.495Z,67.42
2023-04-16T11:12:20.641Z,67.18
2023-04-16T11:14:50.092Z,66.96
2023-04-16T11:17:17.190Z,66.88
2023-04-16T11:19:44.481Z,66.72
2023-04-16T11:22:17.304Z,66.56
2023-04-16T11:24:47.907Z,66.27
2023-04-16T11:27:16.202Z,66.33
2023-04-16T11:29:45.086Z,66.40
2023-04-16T11:32:21.768Z,66.02
2023-04-16T11:34:48.634Z,65.88
2023-04-16T11:37:15.607Z,65.91
2023-04-16T11:39:49.834Z,65.68
2023-04-16T11:42:22.657Z,65.77
2023-04-16T11:44:57.384Z,65.34
2023-04-16T11:47:25.155Z,65.36
2023-04-16T11:49:52.281Z,65.27
2023-04-16T11:52:29.962Z,65.08
2023-04-16T11:54:57.659Z,64.69
2023-04-16T11:57:31.582Z,64.74
2023-04-16T12:00:01.763Z,64.83
2023-04-16T12:02:42.732Z,63.95
2023-04-16T12:05:35.804Z,63.00
2023-04-16T12:08:04.693Z,63.12
2023-04-16T12:10:35.357Z,63.28
2023-04-16T12:13:16.477Z,62.86
2023-04-16T12:15:53.863Z,62.57
2023-04-16T12:18:23.671Z,62.88
2023-04-16T12:20:53.368Z,63.07
2023-04-16T12:23:29.457Z,63.19
2023-04-16T12:25:59.790Z,63.57
2023-04-16T12:28:38.497Z,63.60
2023-04-16T12:31:06.046Z,63.71
2023-04-16T12:33:32.892Z,63.86
2023-04-16T12:35:59.862Z,63.91
2023-04-16T12:38:27.428Z,64.00
2023-04-16T12:40:57.273Z,64.08
2023-04-16T12:43:25.120Z,64.37
2023-04-16T12:45:51.886Z,64.45
2023-04-16T12:48:18.646Z,64.48
2023-04-16T12:50:46.309Z,64.35
2023-04-16T12:53:13.272Z,64.45
2023-04-16T12:55:40.100Z,64.58
2023-04-16T12:58:06.949Z,64.70
2023-04-16T13:00:33.733Z,64.59
2023-04-16T13:03:00.639Z,64.72
2023-04-16T13:05:27.665Z,64.86
2023-04-16T13:07:54.635Z,65.08
2023-04-16T13:10:22.297Z,65.00
2023-04-16T13:12:49.268Z,65.14
2023-04-16T13:15:16.196Z,65.25
2023-04-16T13:17:43.049Z,65.31
2023-04-16T13:20:10.646Z,65.55
2023-04-16T13:22:37.770Z,65.45
2023-04-16T13:25:05.477Z,65.46
2023-04-16T13:27:32.711Z,65.48
2023-04-16T13:29:59.721Z,65.64
2023-04-16T13:32:26.745Z,65.71
2023-04-16T13:34:53.698Z,65.55
2023-04-16T13:37:20.436Z,65.62
2023-04-16T13:39:47.424Z,65.77
2023-04-16T13:42:14.443Z,65.78
2023-04-16T13:44:41.563Z,65.68
2023-04-16T13:47:09.164Z,65.74
2023-04-16T13:49:36.329Z,65.85
2023-04-16T13:52:03.511Z,65.75
2023-04-16T13:54:30.334Z,65.64
2023-04-16T13:56:57.333Z,65.67
2023-04-16T13:59:24.427Z,65.58
2023-04-16T14:01:51.673Z,65.66
2023-04-16T14:04:18.955Z,65.70
2023-04-16T14:06:46.054Z,65.69
2023-04-16T14:09:13.013Z,65.77
2023-04-16T14:11:40.159Z,65.97
2023-04-16T14:14:06.968Z,65.85
2023-04-16T14:16:34.603Z,65.96
2023-04-16T14:19:01.694Z,65.84
2023-04-16T14:21:28.861Z,65.84
2023-04-16T14:23:55.564Z,65.96
2023-04-16T14:26:22.720Z,66.02
2023-04-16T14:28:51.211Z,66.09
2023-04-16T14:31:20.022Z,66.15
2023-04-16T14:33:47.175Z,66.07
2023-04-16T14:36:14.425Z,66.09
2023-04-16T14:38:43.257Z,66.19
2023-04-16T14:41:12.652Z,66.12
2023-04-16T14:43:41.547Z,66.07
2023-04-16T14:46:08.485Z,65.88
2023-04-16T14:48:35.339Z,65.83
2023-04-16T14:51:02.436Z,66.04
2023-04-16T14:53:30.080Z,66.07
2023-04-16T14:55:59.386Z,65.98
2023-04-16T14:58:26.618Z,66.28
2023-04-16T15:00:53.904Z,66.11
2023-04-16T15:03:21.271Z,65.97
2023-04-16T15:05:55.555Z,66.13
2023-04-16T15:08:23.510Z,66.15
2023-04-16T15:10:51.381Z,65.98
2023-04-16T15:13:18.273Z,65.88
2023-04-16T15:15:45.779Z,65.71
2023-04-16T15:18:12.670Z,65.58
2023-04-16T15:20:39.540Z,65.67
2023-04-16T15:23:08.178Z,65.80
2023-04-16T15:25:35.116Z,65.67
2023-04-16T15:28:03.163Z,65.67
2023-04-16T15:30:31.580Z,65.29
2023-04-16T15:33:00.177Z,65.41
2023-04-16T15:35:27.639Z,65.53
2023-04-16T15:37:55.852Z,65.44
2023-04-16T15:40:23.410Z,65.53
2023-04-16T15:42:51.025Z,65.42
2023-04-16T15:45:19.155Z,65.45
2023-04-16T15:47:51.641Z,65.66
2023-04-16T15:50:20.433Z,65.57
2023-04-16T15:52:49.178Z,65.64
2023-04-16T15:55:17.891Z,65.60
2023-04-16T15:57:44.982Z,65.77
2023-04-16T16:00:17.683Z,65.79
2023-04-16T16:02:47.480Z,66.03
2023-04-16T16:05:16.204Z,66.12
2023-04-16T16:07:44.113Z,66.34
2023-04-16T16:10:13.272Z,66.25
2023-04-16T16:12:41.416Z,66.24
2023-04-16T16:15:09.582Z,66.39
2023-04-16T16:17:36.977Z,66.31
2023-04-16T16:20:04.600Z,66.41
2023-04-16T16:22:32.335Z,66.52
2023-04-16T16:24:59.467Z,66.61
2023-04-16T16:27:28.132Z,66.59
2023-04-16T16:29:55.333Z,66.56
2023-04-16T16:32:22.662Z,66.67
2023-04-16T16:34:50.686Z,66.80
2023-04-16T16:37:17.997Z,66.62
2023-04-16T16:39:45.326Z,66.84
2023-04-16T16:42:12.707Z,66.75
2023-04-16T16:44:40.742Z,66.85
2023-04-16T16:47:07.754Z,66.64
2023-04-16T16:49:35.048Z,66.74
2023-04-16T16:52:02.418Z,66.71
2023-04-16T16:54:29.518Z,66.74
2023-04-16T16:56:56.927Z,66.81
2023-04-16T16:59:24.306Z,66.96
2023-04-16T17:01:51.130Z,67.08
2023-04-16T17:04:20.340Z,66.96
2023-04-16T17:06:47.968Z,66.88
2023-04-16T17:09:15.270Z,67.04
2023-04-16T17:11:42.670Z,66.87
2023-04-16T17:14:10.190Z,66.96
2023-04-16T17:16:37.727Z,66.91
2023-04-16T17:19:05.258Z,67.03
2023-04-16T17:21:35.546Z,67.13
2023-04-16T17:24:03.284Z,67.14
2023-04-16T17:26:32.331Z,67.21
2023-04-16T17:29:01.022Z,67.17
2023-04-16T17:31:28.764Z,67.19
2023-04-16T17:33:57.273Z,67.31
2023-04-16T17:36:25.915Z,67.26
2023-04-16T17:38:53.952Z,67.12
2023-04-16T17:41:22.852Z,67.09
2023-04-16T17:43:51.422Z,66.97
2023-04-16T17:46:19.086Z,66.98
2023-04-16T17:48:48.481Z,66.99
2023-04-16T17:51:16.734Z,66.94
2023-04-16T17:53:45.040Z,66.96
2023-04-16T17:56:13.088Z,67.12
2023-04-16T17:58:40.908Z,66.98
2023-04-16T18:01:08.389Z,67.04
2023-04-16T18:03:36.262Z,66.87
2023-04-16T18:06:04.859Z,66.82
2023-04-16T18:08:33.361Z,66.85
2023-04-16T18:11:00.462Z,66.84
2023-04-16T18:13:27.997Z,66.93
2023-04-16T18:15:55.532Z,66.83
2023-04-16T18:18:23.211Z,66.63
2023-04-16T18:20:50.587Z,66.63
2023-04-16T18:23:18.081Z,66.55
2023-04-16T18:25:45.572Z,66.72
2023-04-16T18:28:14.262Z,66.83
2023-04-16T18:30:42.694Z,66.90
2023-04-16T18:35:41.594Z,66.76
2023-04-16T18:38:09.268Z,66.59
2023-04-16T18:40:38.095Z,66.68
2023-04-16T18:43:05.549Z,66.64
2023-04-16T18:45:34.368Z,66.70
2023-04-16T18:48:04.158Z,66.71
2023-04-16T18:50:33.214Z,66.62
2023-04-16T18:53:01.342Z,66.73
2023-04-16T18:55:30.656Z,66.67
2023-04-16T18:57:58.794Z,66.70
2023-04-16T19:00:27.515Z,66.82
2023-04-16T19:02:56.283Z,66.94
2023-04-16T19:05:23.694Z,67.12
2023-04-16T19:07:50.521Z,67.19
2023-04-16T19:10:18.042Z,67.29
2023-04-16T19:12:45.464Z,67.38
2023-04-16T19:15:12.605Z,67.60
2023-04-16T19:17:40.003Z,67.71
2023-04-16T19:20:11.293Z,67.75
2023-04-16T19:22:39.198Z,67.75
2023-04-16T19:25:07.897Z,68.04
2023-04-16T19:27:35.706Z,68.18
2023-04-16T19:30:04.149Z,68.28
2023-04-16T19:32:31.684Z,68.45
2023-04-16T19:34:59.267Z,68.55
2023-04-16T19:37:27.769Z,68.76
2023-04-16T19:39:55.533Z,68.79
2023-04-16T19:42:23.234Z,68.92
2023-04-16T19:44:51.171Z,68.92
2023-04-16T19:47:21.092Z,69.05
2023-04-16T19:49:48.599Z,69.00
2023-04-16T19:52:17.232Z,69.10
2023-04-16T19:54:45.056Z,69.11
2023-04-16T19:57:12.357Z,69.27
2023-04-16T19:59:40.358Z,69.38
2023-04-16T20:02:07.794Z,69.38
2023-04-16T20:04:35.787Z,69.50
2023-04-16T20:07:03.623Z,69.42
2023-04-16T20:09:33.955Z,69.46
2023-04-16T20:12:03.119Z,69.56
2023-04-16T20:14:31.118Z,69.51
2023-04-16T20:16:58.044Z,69.50
2023-04-16T20:19:31.906Z,69.69
2023-04-16T20:21:59.014Z,69.77
2023-04-16T20:24:27.052Z,69.80
2023-04-16T20:26:57.456Z,69.78
2023-04-16T20:29:24.368Z,69.84
2023-04-16T20:31:51.191Z,69.87
2023-04-16T20:34:18.562Z,69.79
2023-04-16T20:36:46.060Z,69.81
2023-04-16T20:39:13.579Z,69.83
2023-04-16T20:41:44.187Z,69.93
2023-04-16T20:44:19.268Z,69.96
2023-04-16T20:46:49.789Z,69.99
2023-04-16T20:49:18.930Z,70.01
2023-04-16T20:51:46.112Z,70.10
2023-04-16T20:54:12.970Z,70.19
2023-04-16T20:56:39.890Z,70.25
2023-04-16T20:59:06.717Z,70.19
2023-04-16T21:01:33.943Z,70.22
2023-04-16T21:04:01.572Z,70.28
2023-04-16T21:06:32.824Z,70.37
2023-04-16T21:08:59.819Z,70.40
2023-04-16T21:11:27.154Z,70.47
2023-04-16T21:13:53.924Z,70.53
2023-04-16T21:16:20.812Z,70.55
2023-04-16T21:18:47.572Z,70.60
2023-04-16T21:21:14.583Z,70.73
2023-04-16T21:23:41.314Z,70.63
2023-04-16T21:26:08.063Z,70.67
2023-04-16T21:28:34.861Z,70.73
2023-04-16T21:31:01.721Z,70.77
2023-04-16T21:33:28.798Z,70.90
2023-04-16T21:35:55.682Z,70.85
2023-04-16T21:38:22.772Z,70.99
2023-04-16T21:40:51.308Z,70.90
2023-04-16T21:43:18.061Z,70.99
2023-04-16T21:45:44.790Z,70.95
2023-04-16T21:48:12.248Z,70.98
2023-04-16T21:50:39.055Z,71.09
2023-04-16T21:53:06.735Z,71.07
2023-04-16T21:55:34.810Z,71.08
2023-04-16T21:58:02.591Z,71.13
2023-04-16T22:00:29.836Z,71.26
2023-04-16T22:02:56.777Z,71.21
2023-04-16T22:05:24.162Z,71.26
2023-04-16T22:07:51.199Z,71.23
2023-04-16T22:10:18.372Z,71.25
2023-04-16T22:12:45.816Z,71.27
2023-04-16T22:15:13.913Z,71.23
2023-04-16T22:17:40.907Z,71.23
2023-04-16T22:20:14.808Z,71.29
2023-04-16T22:22:42.706Z,71.41
2023-04-16T22:25:10.079Z,71.27
2023-04-16T22:27:37.454Z,71.56
2023-04-16T22:30:06.257Z,71.37
2023-04-16T22:32:33.564Z,71.45
2023-04-16T22:35:00.804Z,71.38
2023-04-16T22:37:27.575Z,71.41
2023-04-16T22:39:54.390Z,71.37
2023-04-16T22:42:21.576Z,71.46
2023-04-16T22:44:48.326Z,71.51
2023-04-16T22:47:15.272Z,71.50
2023-04-16T22:49:41.970Z,71.50
2023-04-16T22:52:08.914Z,71.48
2023-04-16T22:54:35.686Z,71.53
2023-04-16T22:57:02.527Z,71.52
2023-04-16T22:59:29.226Z,71.45
2023-04-16T23:01:56.121Z,71.43
2023-04-16T23:04:23.013Z,71.31
2023-04-16T23:06:49.772Z,71.36
2023-04-16T23:09:17.054Z,71.52
2023-04-16T23:11:43.806Z,71.45
2023-04-16T23:14:10.566Z,71.41
2023-04-16T23:16:37.338Z,71.47
2023-04-16T23:19:04.119Z,71.52
2023-04-16T23:21:31.365Z,71.50
2023-04-16T23:23:59.204Z,71.47
2023-04-16T23:26:26.002Z,71.59
2023-04-16T23:28:52.788Z,71.70
2023-04-16T23:31:19.553Z,71.79
2023-04-16T23:33:46.340Z,71.65
2023-04-16T23:36:13.085Z,71.75
2023-04-16T23:38:39.936Z,71.85
2023-04-16T23:41:07.008Z,71.78
2023-04-16T23:43:35.096Z,71.88
2023-04-16T23:46:02.744Z,71.75
2023-04-16T23:48:29.506Z,71.65
2023-04-16T23:50:56.249Z,71.61
2023-04-16T23:53:23.075Z,71.66
2023-04-16T23:55:50.153Z,71.68
2023-04-16T23:58:16.906Z,71.74
